Maxwell, New Mexico
Current Conditions -  °F | °C
As of 12:53 PM on Monday 24 Nov 2014 (Local Time) from KRTN Reporting Station
Broken Clouds Broken Clouds  
Wind Chill: 29°   Ceiling: 9000
Heat Index: 39°   Visibility: 10mi
Dew Point:   Wind: 21mph
Humidity: 21%   Direction: 10°N
Pressure: 29.96"   Gusts: 32mph
Location:  36.54°N, 104.54°W
Report Text: KRTN 241953Z AUTO 01018G28KT 10SM BKN090 04/M17 A2996 RMK AO2 PK WND 36030/1921 SLP154 T00391167
Loading
Personal Weather Stations






























Interactive Weather Map New forecast layout! Learn more

10-Day Weather Forecast

Advertisements
Track Severe Weather on mobile